Time;durP1;ratioP1;P1;durP2;ratioP2;P2;SDS_P1;SDS_P2;PMS_P1;PMS_P2;Temp;Humidity;BMP_temperature;BMP_pressure;BME280_temperature;BME280_humidity;BME280_pressure;Samples;Min_cycle;Max_cycle;Signal;HPM_P1;HPM_P2
2021/08/08 00:01:51;;;;;;;2.63;1.67;;;;;;;;;;5085563;28;20190;-48
2021/08/08 00:04:17;;;;;;;2.97;1.52;;;;;;;;;;5099488;28;20417;-48
2021/08/08 00:06:42;;;;;;;1.70;1.27;;;;;;;;;;5101336;28;20181;-48
2021/08/08 00:09:09;;;;;;;1.42;1.27;;;;;;;;;;5092412;28;20515;-47
2021/08/08 00:11:35;;;;;;;3.85;1.40;;;;;;;;;;5076366;28;20190;-48
2021/08/08 00:14:01;;;;;;;4.43;1.35;;;;;;;;;;5085658;28;20239;-48
2021/08/08 00:16:28;;;;;;;3.50;1.20;;;;;;;;;;5090329;28;20288;-47
2021/08/08 00:18:54;;;;;;;1.40;1.30;;;;;;;;;;5095201;28;20170;-48
2021/08/08 00:21:20;;;;;;;2.05;1.20;;;;;;;;;;5094038;28;20186;-47
2021/08/08 00:23:46;;;;;;;1.42;1.23;;;;;;;;;;5095084;28;20182;-48
2021/08/08 00:26:12;;;;;;;2.53;1.15;;;;;;;;;;5094686;28;20170;-48
2021/08/08 00:28:38;;;;;;;1.30;1.13;;;;;;;;;;5078148;28;20566;-48
2021/08/08 00:31:04;;;;;;;1.67;1.35;;;;;;;;;;5088005;28;20194;-48
2021/08/08 00:33:30;;;;;;;1.50;1.08;;;;;;;;;;5095462;28;20177;-48
2021/08/08 00:35:56;;;;;;;2.65;1.30;;;;;;;;;;5094797;28;20442;-47
2021/08/08 00:38:22;;;;;;;3.00;1.20;;;;;;;;;;5089148;28;20319;-47
2021/08/08 00:40:48;;;;;;;1.65;1.20;;;;;;;;;;5095476;28;20265;-47
2021/08/08 00:43:14;;;;;;;2.53;1.02;;;;;;;;;;5078291;28;20304;-48
2021/08/08 00:45:40;;;;;;;2.30;1.00;;;;;;;;;;5086346;28;20410;-47
2021/08/08 00:48:06;;;;;;;1.33;1.00;;;;;;;;;;5074520;28;20166;-47
2021/08/08 00:50:32;;;;;;;1.75;1.05;;;;;;;;;;5089866;28;20219;-47
2021/08/08 00:52:58;;;;;;;4.70;1.60;;;;;;;;;;5094305;28;20180;-48
2021/08/08 00:55:24;;;;;;;3.38;1.23;;;;;;;;;;5092569;28;20219;-48
2021/08/08 00:57:50;;;;;;;2.03;1.20;;;;;;;;;;5081358;28;20214;-47
2021/08/08 01:00:16;;;;;;;1.23;1.02;;;;;;;;;;5082540;28;20253;-48
2021/08/08 01:02:52;;;;;;;1.42;1.17;;;;;;;;;;5094280;28;20173;-48
2021/08/08 01:05:19;;;;;;;1.25;1.08;;;;;;;;;;5094911;28;20578;-48
2021/08/08 01:07:51;;;;;;;1.63;1.10;;;;;;;;;;5093153;28;20186;-48
2021/08/08 01:10:18;;;;;;;1.33;1.15;;;;;;;;;;5084900;28;20192;-47
2021/08/08 01:12:44;;;;;;;1.73;1.27;;;;;;;;;;5085249;28;20181;-47
2021/08/08 01:15:10;;;;;;;1.10;1.00;;;;;;;;;;5087537;28;20558;-48
2021/08/08 01:17:38;;;;;;;1.48;1.10;;;;;;;;;;5086133;28;20256;-47
2021/08/08 01:20:06;;;;;;;3.88;1.20;;;;;;;;;;5085040;28;20192;-48
2021/08/08 01:22:32;;;;;;;1.30;1.20;;;;;;;;;;5094575;28;20197;-48
2021/08/08 01:24:59;;;;;;;3.53;1.20;;;;;;;;;;5094385;28;20269;-48
2021/08/08 01:27:25;;;;;;;1.40;0.98;;;;;;;;;;5083503;28;20186;-48
2021/08/08 01:29:53;;;;;;;3.72;1.33;;;;;;;;;;5087293;28;20446;-48
2021/08/08 01:32:19;;;;;;;2.80;1.55;;;;;;;;;;5085835;28;20178;-48
2021/08/08 01:34:45;;;;;;;4.28;1.40;;;;;;;;;;5098423;28;20181;-48
2021/08/08 01:37:11;;;;;;;2.35;1.10;;;;;;;;;;5093954;28;20208;-48
2021/08/08 01:39:38;;;;;;;2.10;1.40;;;;;;;;;;5078542;28;20166;-47
2021/08/08 01:42:05;;;;;;;3.75;1.08;;;;;;;;;;5093099;28;20177;-47
2021/08/08 01:44:36;;;;;;;1.38;1.20;;;;;;;;;;5086553;28;20182;-47
2021/08/08 01:47:02;;;;;;;1.48;1.13;;;;;;;;;;5092007;28;20219;-48
2021/08/08 01:49:29;;;;;;;1.35;1.15;;;;;;;;;;5097454;28;20189;-48
2021/08/08 01:51:56;;;;;;;1.73;1.40;;;;;;;;;;5098626;28;20182;-48
2021/08/08 01:54:23;;;;;;;1.63;1.10;;;;;;;;;;5097240;28;20166;-47
2021/08/08 01:56:49;;;;;;;2.03;1.08;;;;;;;;;;5087796;28;20515;-47
2021/08/08 01:59:15;;;;;;;1.23;1.00;;;;;;;;;;5086535;28;20189;-48
2021/08/08 02:01:41;;;;;;;2.08;1.40;;;;;;;;;;5081733;28;20301;-48
2021/08/08 02:04:17;;;;;;;1.70;1.17;;;;;;;;;;5091391;28;20438;-47
2021/08/08 02:06:43;;;;;;;2.72;1.00;;;;;;;;;;5095180;28;20322;-48
2021/08/08 02:09:09;;;;;;;1.10;0.95;;;;;;;;;;5085294;28;20188;-47
2021/08/08 02:11:36;;;;;;;1.73;1.10;;;;;;;;;;5097314;28;20186;-48
2021/08/08 02:14:02;;;;;;;2.55;1.30;;;;;;;;;;5091076;28;20186;-47
2021/08/08 02:16:28;;;;;;;2.78;1.15;;;;;;;;;;5091835;28;20220;-48
2021/08/08 02:18:54;;;;;;;1.92;1.02;;;;;;;;;;5094240;28;20174;-48
2021/08/08 02:21:20;;;;;;;1.73;1.20;;;;;;;;;;5083852;28;20542;-47
2021/08/08 02:23:46;;;;;;;1.65;0.98;;;;;;;;;;5093964;28;20254;-47
2021/08/08 02:26:11;;;;;;;0.85;0.85;;;;;;;;;;5097626;28;20201;-48
2021/08/08 02:28:38;;;;;;;2.33;0.95;;;;;;;;;;5086101;28;20185;-47
2021/08/08 02:31:03;;;;;;;4.25;1.33;;;;;;;;;;5093661;28;20250;-47
2021/08/08 02:33:29;;;;;;;1.58;1.10;;;;;;;;;;5097752;28;20170;-47
2021/08/08 02:35:55;;;;;;;1.70;0.82;;;;;;;;;;5096814;28;20213;-47
2021/08/08 02:38:21;;;;;;;1.20;1.10;;;;;;;;;;5096495;28;20178;-47
2021/08/08 02:40:47;;;;;;;3.35;1.33;;;;;;;;;;5097690;28;20517;-47
2021/08/08 02:43:14;;;;;;;3.83;0.98;;;;;;;;;;5085002;28;20717;-48
2021/08/08 02:45:40;;;;;;;2.97;1.00;;;;;;;;;;5087586;28;20214;-47
2021/08/08 02:48:06;;;;;;;2.22;0.82;;;;;;;;;;5076915;28;20167;-47
2021/08/08 02:50:32;;;;;;;1.00;1.00;;;;;;;;;;5091626;28;20185;-48
2021/08/08 02:52:58;;;;;;;1.02;0.90;;;;;;;;;;5097369;28;20178;-48
2021/08/08 02:55:24;;;;;;;2.55;0.95;;;;;;;;;;5096853;28;20177;-48
2021/08/08 02:57:50;;;;;;;4.22;1.05;;;;;;;;;;5079835;28;20277;-48
2021/08/08 03:00:16;;;;;;;0.95;0.90;;;;;;;;;;5084701;28;20186;-47
2021/08/08 03:02:42;;;;;;;1.73;1.00;;;;;;;;;;5095028;28;20503;-48
2021/08/08 03:05:09;;;;;;;1.63;0.98;;;;;;;;;;5088208;28;20182;-48
2021/08/08 03:07:35;;;;;;;1.85;1.00;;;;;;;;;;5088244;28;20182;-48
2021/08/08 03:10:03;;;;;;;1.50;1.00;;;;;;;;;;5096668;28;20265;-48
2021/08/08 03:12:29;;;;;;;0.80;0.75;;;;;;;;;;5095917;28;20189;-48
2021/08/08 03:14:55;;;;;;;1.50;1.00;;;;;;;;;;5092405;28;20633;-48
2021/08/08 03:17:21;;;;;;;0.95;0.80;;;;;;;;;;5095852;28;20213;-48
2021/08/08 03:19:47;;;;;;;1.67;0.95;;;;;;;;;;5093206;28;20177;-47
2021/08/08 03:22:13;;;;;;;0.88;0.70;;;;;;;;;;5096308;28;20228;-47
2021/08/08 03:24:39;;;;;;;1.23;1.00;;;;;;;;;;5096810;28;20178;-47
2021/08/08 03:27:05;;;;;;;1.23;0.95;;;;;;;;;;5087510;28;20554;-48
2021/08/08 03:29:31;;;;;;;1.85;0.93;;;;;;;;;;5079788;28;20190;-48
2021/08/08 03:31:57;;;;;;;0.90;0.90;;;;;;;;;;5094086;28;20280;-48
2021/08/08 03:34:23;;;;;;;1.58;0.98;;;;;;;;;;5090574;28;20268;-47
2021/08/08 03:36:49;;;;;;;1.50;1.20;;;;;;;;;;5096524;28;20220;-47
2021/08/08 03:39:16;;;;;;;4.82;1.60;;;;;;;;;;5093863;28;20191;-48
2021/08/08 03:41:42;;;;;;;4.22;1.00;;;;;;;;;;5077160;28;20591;-48
2021/08/08 03:44:08;;;;;;;1.13;1.02;;;;;;;;;;5085409;28;20174;-48
2021/08/08 03:46:34;;;;;;;4.28;1.33;;;;;;;;;;5096160;28;20213;-47
2021/08/08 03:49:00;;;;;;;4.22;1.15;;;;;;;;;;5095735;28;20162;-47
2021/08/08 03:51:26;;;;;;;1.58;1.00;;;;;;;;;;5096327;28;20169;-47
2021/08/08 03:53:52;;;;;;;1.45;0.75;;;;;;;;;;5096269;28;20166;-48
2021/08/08 03:56:18;;;;;;;0.93;0.90;;;;;;;;;;5088062;28;20198;-48
2021/08/08 03:58:44;;;;;;;1.75;1.08;;;;;;;;;;5082742;28;20632;-47
2021/08/08 04:01:10;;;;;;;3.33;1.00;;;;;;;;;;5087744;28;20213;-47
2021/08/08 04:03:36;;;;;;;1.48;1.00;;;;;;;;;;5095993;28;20165;-47
2021/08/08 04:06:03;;;;;;;1.73;0.95;;;;;;;;;;5095373;28;20205;-48
2021/08/08 04:08:29;;;;;;;20.90;4.47;;;;;;;;;;5081161;28;20550;-48
2021/08/08 04:10:55;;;;;;;39.47;9.38;;;;;;;;;;5093876;28;20217;-48
2021/08/08 04:13:21;;;;;;;26.30;5.85;;;;;;;;;;5077460;28;20181;-47
2021/08/08 04:15:47;;;;;;;14.80;3.92;;;;;;;;;;5084132;28;20193;-48
2021/08/08 04:18:13;;;;;;;9.23;2.70;;;;;;;;;;5095261;28;20172;-48
2021/08/08 04:20:39;;;;;;;9.63;3.03;;;;;;;;;;5095524;28;20178;-48
2021/08/08 04:23:06;;;;;;;6.55;2.10;;;;;;;;;;5095806;28;20196;-47
2021/08/08 04:25:33;;;;;;;8.52;2.58;;;;;;;;;;5095576;28;20173;-48
2021/08/08 04:27:59;;;;;;;5.22;2.00;;;;;;;;;;5087733;28;20284;-48
2021/08/08 04:30:27;;;;;;;6.75;2.40;;;;;;;;;;5086534;28;20182;-48
2021/08/08 04:32:53;;;;;;;3.67;1.58;;;;;;;;;;5075096;28;20174;-47
2021/08/08 04:35:19;;;;;;;3.88;1.45;;;;;;;;;;5087891;28;20213;-48
2021/08/08 04:37:45;;;;;;;3.30;1.45;;;;;;;;;;5094159;28;20247;-47
2021/08/08 04:40:11;;;;;;;2.55;0.95;;;;;;;;;;5095073;28;20170;-48
2021/08/08 04:42:38;;;;;;;3.75;1.50;;;;;;;;;;5079000;28;20629;-48
2021/08/08 04:45:05;;;;;;;2.47;1.08;;;;;;;;;;5079601;28;20171;-47
2021/08/08 04:47:31;;;;;;;1.27;1.15;;;;;;;;;;5094776;28;20252;-47
2021/08/08 04:49:57;;;;;;;1.08;1.08;;;;;;;;;;5095143;28;20204;-48
2021/08/08 04:52:23;;;;;;;2.72;1.30;;;;;;;;;;5095176;28;20730;-48
2021/08/08 04:54:49;;;;;;;3.05;1.13;;;;;;;;;;5093581;28;20181;-48
2021/08/08 04:57:15;;;;;;;1.38;0.90;;;;;;;;;;5094554;28;20544;-48
2021/08/08 04:59:41;;;;;;;2.30;1.15;;;;;;;;;;5082523;28;20182;-47
2021/08/08 05:02:07;;;;;;;3.22;1.10;;;;;;;;;;5094511;28;20185;-47
2021/08/08 05:04:34;;;;;;;2.03;1.38;;;;;;;;;;5088762;28;20171;-48
2021/08/08 05:07:00;;;;;;;1.00;0.90;;;;;;;;;;5073790;28;20162;-48
2021/08/08 05:09:26;;;;;;;1.30;0.70;;;;;;;;;;5074588;28;20191;-47
2021/08/08 05:11:52;;;;;;;1.58;1.10;;;;;;;;;;5074631;28;20170;-48
2021/08/08 05:14:18;;;;;;;2.05;1.05;;;;;;;;;;5083359;28;20184;-48
2021/08/08 05:16:44;;;;;;;2.72;0.93;;;;;;;;;;5077960;28;20210;-48
2021/08/08 05:19:11;;;;;;;2.08;0.85;;;;;;;;;;5077191;28;20232;-47
2021/08/08 05:21:37;;;;;;;1.77;0.90;;;;;;;;;;5094759;28;20202;-48
2021/08/08 05:24:03;;;;;;;2.17;1.15;;;;;;;;;;5089001;28;20858;-48
2021/08/08 05:26:29;;;;;;;2.20;0.90;;;;;;;;;;5094695;28;20174;-48
2021/08/08 05:28:55;;;;;;;1.35;1.00;;;;;;;;;;5088137;28;20244;-47
2021/08/08 05:31:21;;;;;;;1.10;1.00;;;;;;;;;;5087717;28;20177;-48
2021/08/08 05:33:47;;;;;;;2.13;0.73;;;;;;;;;;5094689;28;20162;-47
2021/08/08 05:36:13;;;;;;;1.60;1.20;;;;;;;;;;5077211;28;20568;-48
2021/08/08 05:38:39;;;;;;;0.88;0.80;;;;;;;;;;5093199;28;20269;-48
2021/08/08 05:41:05;;;;;;;3.90;0.90;;;;;;;;;;5092404;28;20529;-48
2021/08/08 05:43:31;;;;;;;3.20;0.80;;;;;;;;;;5076424;28;20182;-48
2021/08/08 05:45:57;;;;;;;2.15;1.10;;;;;;;;;;5084418;28;20196;-47
2021/08/08 05:48:23;;;;;;;1.80;0.70;;;;;;;;;;5073742;28;20171;-48
2021/08/08 05:50:49;;;;;;;2.38;0.98;;;;;;;;;;5090481;28;20166;-48
2021/08/08 05:53:15;;;;;;;1.10;0.80;;;;;;;;;;5093856;28;20452;-48
2021/08/08 05:55:46;;;;;;;1.42;0.90;;;;;;;;;;5074643;28;20174;-47
2021/08/08 05:58:12;;;;;;;1.17;0.93;;;;;;;;;;5074918;28;20206;-48
2021/08/08 06:00:38;;;;;;;1.23;0.90;;;;;;;;;;5084702;28;20200;-48
2021/08/08 06:03:08;;;;;;;1.45;0.80;;;;;;;;;;5074342;28;20261;-48
2021/08/08 06:05:34;;;;;;;1.52;0.70;;;;;;;;;;5089691;28;20174;-48
2021/08/08 06:08:00;;;;;;;1.67;1.00;;;;;;;;;;5093437;28;20224;-48
2021/08/08 06:10:26;;;;;;;1.65;1.10;;;;;;;;;;5094505;28;20170;-48
2021/08/08 06:12:52;;;;;;;2.08;0.80;;;;;;;;;;5090311;28;20175;-48
2021/08/08 06:15:18;;;;;;;2.58;1.42;;;;;;;;;;5085681;28;20450;-47
2021/08/08 06:17:44;;;;;;;1.05;0.90;;;;;;;;;;5073543;28;20237;-47
2021/08/08 06:20:10;;;;;;;2.35;0.93;;;;;;;;;;5086404;28;20185;-48
2021/08/08 06:22:36;;;;;;;1.30;0.80;;;;;;;;;;5097103;28;20212;-47
2021/08/08 06:25:03;;;;;;;1.67;0.80;;;;;;;;;;5083701;28;20296;-48
2021/08/08 06:27:29;;;;;;;2.42;0.90;;;;;;;;;;5076946;28;20202;-47
2021/08/08 06:29:55;;;;;;;3.15;1.05;;;;;;;;;;5089488;28;20170;-47
2021/08/08 06:32:21;;;;;;;2.92;0.98;;;;;;;;;;5097570;28;20556;-48
2021/08/08 06:34:46;;;;;;;1.23;0.90;;;;;;;;;;5104872;28;20177;-47
2021/08/08 06:37:12;;;;;;;0.93;0.82;;;;;;;;;;5096284;28;20210;-46
2021/08/08 06:39:38;;;;;;;1.23;0.70;;;;;;;;;;5077335;28;20238;-47
2021/08/08 06:42:04;;;;;;;4.32;0.90;;;;;;;;;;5077319;28;20351;-48
2021/08/08 06:44:30;;;;;;;3.63;0.93;;;;;;;;;;5087434;28;20182;-48
2021/08/08 06:46:56;;;;;;;2.40;0.90;;;;;;;;;;5079014;28;20190;-48
2021/08/08 06:49:22;;;;;;;2.25;0.90;;;;;;;;;;5081719;28;20935;-47
2021/08/08 06:51:48;;;;;;;4.20;0.88;;;;;;;;;;5097470;28;20253;-48
2021/08/08 06:54:14;;;;;;;0.98;0.80;;;;;;;;;;5095404;28;20623;-48
2021/08/08 06:56:40;;;;;;;1.25;0.80;;;;;;;;;;5080665;28;20578;-48
2021/08/08 06:59:06;;;;;;;2.78;1.00;;;;;;;;;;5087277;28;20174;-47
2021/08/08 07:01:32;;;;;;;3.38;1.00;;;;;;;;;;5093830;28;20189;-48
2021/08/08 07:03:58;;;;;;;0.65;0.65;;;;;;;;;;5096950;28;20619;-48
2021/08/08 07:06:24;;;;;;;1.40;1.05;;;;;;;;;;5097160;28;20177;-47
2021/08/08 07:08:50;;;;;;;3.63;1.00;;;;;;;;;;5096486;28;20419;-48
2021/08/08 07:11:16;;;;;;;3.72;0.88;;;;;;;;;;5096407;28;20182;-48
2021/08/08 07:13:42;;;;;;;2.55;0.70;;;;;;;;;;5092754;28;20174;-48
2021/08/08 07:16:08;;;;;;;2.65;0.70;;;;;;;;;;5087965;28;20486;-47
2021/08/08 07:18:35;;;;;;;1.65;0.85;;;;;;;;;;5096157;28;20882;-48
2021/08/08 07:21:01;;;;;;;1.23;0.70;;;;;;;;;;5078474;28;20167;-47
2021/08/08 07:23:27;;;;;;;0.80;0.75;;;;;;;;;;5076615;28;20172;-48
2021/08/08 07:25:53;;;;;;;1.77;0.75;;;;;;;;;;5078683;28;20318;-48
2021/08/08 07:28:19;;;;;;;1.92;0.70;;;;;;;;;;5076962;28;20235;-47
2021/08/08 07:30:44;;;;;;;0.70;0.70;;;;;;;;;;5087310;28;20182;-48
2021/08/08 07:33:11;;;;;;;1.15;0.82;;;;;;;;;;5076254;28;20193;-48
2021/08/08 07:35:40;;;;;;;1.73;0.70;;;;;;;;;;5091323;28;20223;-48
2021/08/08 07:38:06;;;;;;;1.08;0.80;;;;;;;;;;5095972;28;20194;-48
2021/08/08 07:40:32;;;;;;;1.42;0.70;;;;;;;;;;5093992;28;20280;-48
2021/08/08 07:42:58;;;;;;;0.93;0.80;;;;;;;;;;5092727;28;20182;-48
2021/08/08 07:45:24;;;;;;;0.77;0.70;;;;;;;;;;5084722;28;20180;-48
2021/08/08 07:47:50;;;;;;;1.40;0.80;;;;;;;;;;5095809;28;20257;-48
2021/08/08 07:50:16;;;;;;;0.82;0.68;;;;;;;;;;5084066;28;20187;-48
2021/08/08 07:52:42;;;;;;;0.82;0.75;;;;;;;;;;5075998;28;20178;-48
2021/08/08 07:55:09;;;;;;;1.77;0.77;;;;;;;;;;5076054;28;20273;-47
2021/08/08 07:57:35;;;;;;;2.95;0.90;;;;;;;;;;5075625;28;20244;-48
2021/08/08 08:00:01;;;;;;;1.23;1.00;;;;;;;;;;5091197;28;20180;-46
2021/08/08 08:02:27;;;;;;;1.73;0.88;;;;;;;;;;5096101;28;20166;-48
2021/08/08 08:04:53;;;;;;;0.80;0.80;;;;;;;;;;5096023;28;20177;-48
2021/08/08 08:07:19;;;;;;;2.40;0.88;;;;;;;;;;5095464;28;20273;-48
2021/08/08 08:09:45;;;;;;;2.45;1.10;;;;;;;;;;5094955;28;20174;-47
2021/08/08 08:12:11;;;;;;;2.15;0.90;;;;;;;;;;5079161;28;20269;-48
2021/08/08 08:14:37;;;;;;;1.27;0.80;;;;;;;;;;5086570;28;20249;-48
2021/08/08 08:17:03;;;;;;;2.55;0.80;;;;;;;;;;5076043;28;20306;-48
2021/08/08 08:19:29;;;;;;;4.43;0.80;;;;;;;;;;5080873;28;20689;-48
2021/08/08 08:21:55;;;;;;;1.33;0.63;;;;;;;;;;5095652;28;20557;-47
2021/08/08 08:24:21;;;;;;;1.67;0.88;;;;;;;;;;5090618;28;20178;-48
2021/08/08 08:26:47;;;;;;;3.17;1.08;;;;;;;;;;5076110;28;20254;-48
2021/08/08 08:29:14;;;;;;;1.50;0.90;;;;;;;;;;5082696;28;20181;-48
2021/08/08 08:31:40;;;;;;;1.45;0.70;;;;;;;;;;5092237;28;20170;-47
2021/08/08 08:34:06;;;;;;;1.75;0.90;;;;;;;;;;5095464;28;20173;-48
2021/08/08 08:36:32;;;;;;;1.52;0.80;;;;;;;;;;5095217;28;20193;-51
2021/08/08 08:38:58;;;;;;;1.75;0.90;;;;;;;;;;5094113;28;20319;-47
2021/08/08 08:41:28;;;;;;;1.35;0.90;;;;;;;;;;5094535;28;20162;-48
2021/08/08 08:44:01;;;;;;;2.90;0.73;;;;;;;;;;5079743;28;20174;-48
2021/08/08 08:46:27;;;;;;;2.17;0.93;;;;;;;;;;5082647;28;20189;-48
2021/08/08 08:48:54;;;;;;;1.45;0.80;;;;;;;;;;5094630;28;20170;-48
2021/08/08 08:51:28;;;;;;;1.70;0.60;;;;;;;;;;5095153;28;20178;-48
2021/08/08 08:53:55;;;;;;;2.22;0.88;;;;;;;;;;5095138;28;20170;-48
2021/08/08 08:56:21;;;;;;;1.65;0.70;;;;;;;;;;5089091;28;20205;-47
2021/08/08 08:58:47;;;;;;;1.40;0.82;;;;;;;;;;5080597;28;20177;-47
2021/08/08 09:01:13;;;;;;;1.02;0.77;;;;;;;;;;5080878;28;20189;-46
2021/08/08 09:03:40;;;;;;;1.05;0.70;;;;;;;;;;5075396;28;20179;-47
2021/08/08 09:06:07;;;;;;;1.15;0.80;;;;;;;;;;5094272;28;20194;-48
2021/08/08 09:08:33;;;;;;;2.05;1.00;;;;;;;;;;5094393;28;20162;-48
2021/08/08 09:11:01;;;;;;;2.03;0.95;;;;;;;;;;5087685;28;20179;-48
2021/08/08 09:13:27;;;;;;;2.90;1.00;;;;;;;;;;5075991;28;20178;-47
2021/08/08 09:15:53;;;;;;;1.30;0.80;;;;;;;;;;5085475;28;20273;-47
2021/08/08 09:18:22;;;;;;;1.73;0.90;;;;;;;;;;5074070;28;20209;-48
2021/08/08 09:20:49;;;;;;;3.20;1.00;;;;;;;;;;5091316;28;20177;-48
2021/08/08 09:23:16;;;;;;;1.63;0.80;;;;;;;;;;5094938;28;20456;-48
2021/08/08 09:25:52;;;;;;;1.15;0.82;;;;;;;;;;5085927;28;20272;-48
2021/08/08 09:28:19;;;;;;;1.75;0.68;;;;;;;;;;5075127;28;20202;-47
2021/08/08 09:30:45;;;;;;;1.85;0.80;;;;;;;;;;5085634;28;20206;-47
2021/08/08 09:33:12;;;;;;;2.60;1.20;;;;;;;;;;5074457;28;20178;-48
2021/08/08 09:35:40;;;;;;;1.23;0.90;;;;;;;;;;5088861;28;20581;-47
2021/08/08 09:38:07;;;;;;;1.02;0.88;;;;;;;;;;5093756;28;20193;-47
2021/08/08 09:40:36;;;;;;;1.23;1.08;;;;;;;;;;5082527;28;20175;-47
2021/08/08 09:43:04;;;;;;;1.27;0.88;;;;;;;;;;5074516;28;20162;-48
2021/08/08 09:45:34;;;;;;;1.65;0.82;;;;;;;;;;5077052;28;20209;-47
2021/08/08 09:48:01;;;;;;;2.42;0.82;;;;;;;;;;5073931;28;20253;-47
2021/08/08 09:50:29;;;;;;;1.52;0.70;;;;;;;;;;5087606;28;20575;-48
2021/08/08 09:53:03;;;;;;;2.15;0.80;;;;;;;;;;5094023;28;20178;-47
2021/08/08 09:55:37;;;;;;;2.33;0.85;;;;;;;;;;5082414;28;20195;-51
2021/08/08 09:58:04;;;;;;;3.78;0.90;;;;;;;;;;5078710;28;20201;-48
2021/08/08 10:00:30;;;;;;;1.42;0.90;;;;;;;;;;5089333;28;20182;-48
2021/08/08 10:02:57;;;;;;;1.20;0.90;;;;;;;;;;5078083;28;20558;-48
2021/08/08 10:05:24;;;;;;;2.15;0.90;;;;;;;;;;5093240;28;20564;-48
2021/08/08 10:07:50;;;;;;;2.15;0.88;;;;;;;;;;5089825;28;20178;-47
2021/08/08 10:10:17;;;;;;;1.00;0.82;;;;;;;;;;5080239;28;20228;-48
2021/08/08 10:12:43;;;;;;;0.68;0.68;;;;;;;;;;5077995;28;20174;-48
2021/08/08 10:15:09;;;;;;;6.30;0.95;;;;;;;;;;5090162;28;20198;-48
2021/08/08 10:17:35;;;;;;;1.83;0.77;;;;;;;;;;5077053;28;20208;-47
2021/08/08 10:20:03;;;;;;;2.85;0.80;;;;;;;;;;5087762;28;20170;-47
2021/08/08 10:22:30;;;;;;;1.15;0.70;;;;;;;;;;5097184;28;20154;-47
2021/08/08 10:24:57;;;;;;;2.50;1.27;;;;;;;;;;5096109;28;20181;-47
2021/08/08 10:27:24;;;;;;;1.45;0.85;;;;;;;;;;5077046;28;20224;-47
2021/08/08 10:29:50;;;;;;;0.75;0.70;;;;;;;;;;5081446;28;20454;-48
2021/08/08 10:32:16;;;;;;;3.38;1.15;;;;;;;;;;5097438;28;20239;-47
2021/08/08 10:34:42;;;;;;;1.00;0.70;;;;;;;;;;5097823;28;20186;-48
2021/08/08 10:37:10;;;;;;;2.67;0.98;;;;;;;;;;5095946;28;20667;-48
2021/08/08 10:39:43;;;;;;;1.38;0.90;;;;;;;;;;5097676;28;20166;-48
2021/08/08 10:42:09;;;;;;;1.88;1.00;;;;;;;;;;5089308;28;20178;-47
2021/08/08 10:44:45;;;;;;;1.30;0.90;;;;;;;;;;5087789;28;20702;-48
2021/08/08 10:47:11;;;;;;;1.73;0.80;;;;;;;;;;5077047;28;20224;-47
2021/08/08 10:49:37;;;;;;;0.90;0.80;;;;;;;;;;5083718;28;20178;-48
2021/08/08 10:52:10;;;;;;;1.75;0.80;;;;;;;;;;5096823;28;20209;-47
2021/08/08 10:54:39;;;;;;;1.55;0.80;;;;;;;;;;5092448;28;20175;-47
2021/08/08 10:57:09;;;;;;;1.88;0.90;;;;;;;;;;5076425;28;20439;-47
2021/08/08 10:59:41;;;;;;;2.13;1.00;;;;;;;;;;5081265;28;20219;-48
2021/08/08 11:02:08;;;;;;;1.42;0.80;;;;;;;;;;5096743;28;20186;-47
2021/08/08 11:04:35;;;;;;;2.45;0.75;;;;;;;;;;5090675;28;20167;-48
2021/08/08 11:07:02;;;;;;;0.80;0.80;;;;;;;;;;5077058;28;20181;-47
2021/08/08 11:09:29;;;;;;;2.03;0.80;;;;;;;;;;5088229;28;20201;-48
2021/08/08 11:11:58;;;;;;;1.60;0.90;;;;;;;;;;5076591;28;20186;-47
2021/08/08 11:14:25;;;;;;;0.93;0.73;;;;;;;;;;5079450;28;20178;-47
2021/08/08 11:17:18;;;;;;;3.47;0.90;;;;;;;;;;5081824;28;20206;-48
2021/08/08 11:19:44;;;;;;;2.38;0.70;;;;;;;;;;5081436;28;20186;-48
2021/08/08 11:22:11;;;;;;;1.60;0.88;;;;;;;;;;5096687;28;20938;-48
2021/08/08 11:24:38;;;;;;;2.35;0.90;;;;;;;;;;5096140;28;20178;-47
2021/08/08 11:27:06;;;;;;;2.72;0.80;;;;;;;;;;5096423;28;20190;-48
2021/08/08 11:29:33;;;;;;;2.10;0.90;;;;;;;;;;5084968;28;20182;-47
2021/08/08 11:32:00;;;;;;;2.15;1.00;;;;;;;;;;5094909;28;20182;-47
2021/08/08 11:34:26;;;;;;;2.05;0.80;;;;;;;;;;5096462;28;20223;-47
2021/08/08 11:36:56;;;;;;;2.67;0.95;;;;;;;;;;5096529;28;20274;-48
2021/08/08 11:39:22;;;;;;;1.42;0.85;;;;;;;;;;5093667;28;20180;-47
2021/08/08 11:41:48;;;;;;;4.35;1.15;;;;;;;;;;5096620;28;20433;-48
2021/08/08 11:44:15;;;;;;;2.28;1.10;;;;;;;;;;5087903;28;20174;-47
2021/08/08 11:46:48;;;;;;;1.25;0.93;;;;;;;;;;5077720;28;20186;-48
2021/08/08 11:49:17;;;;;;;1.55;0.90;;;;;;;;;;5078709;28;20584;-48
2021/08/08 11:51:54;;;;;;;1.50;0.75;;;;;;;;;;5096412;28;20188;-47
2021/08/08 11:54:23;;;;;;;2.15;1.05;;;;;;;;;;5077075;28;20180;-48
2021/08/08 11:56:49;;;;;;;1.58;0.75;;;;;;;;;;5076035;28;20202;-47
2021/08/08 11:59:23;;;;;;;1.33;0.80;;;;;;;;;;5082711;28;20201;-48
2021/08/08 12:01:56;;;;;;;2.40;0.80;;;;;;;;;;5080759;28;20174;-48
2021/08/08 12:04:23;;;;;;;1.83;0.90;;;;;;;;;;5096148;28;20231;-47
2021/08/08 12:06:49;;;;;;;2.35;1.05;;;;;;;;;;5090621;28;20182;-48
2021/08/08 12:09:15;;;;;;;1.48;0.90;;;;;;;;;;5075246;28;20557;-49
2021/08/08 12:11:51;;;;;;;4.53;0.98;;;;;;;;;;5075626;28;20171;-47
2021/08/08 12:14:28;;;;;;;1.10;0.80;;;;;;;;;;5083731;28;20169;-47
2021/08/08 12:16:59;;;;;;;1.55;0.90;;;;;;;;;;5088782;28;20661;-47
2021/08/08 12:19:28;;;;;;;1.70;0.80;;;;;;;;;;5090991;28;20173;-48
2021/08/08 12:22:00;;;;;;;2.20;1.10;;;;;;;;;;5088216;28;20200;-47
2021/08/08 12:24:31;;;;;;;1.60;1.00;;;;;;;;;;5090021;28;20495;-47
2021/08/08 12:26:57;;;;;;;1.10;0.82;;;;;;;;;;5086353;28;20657;-47
2021/08/08 12:29:29;;;;;;;2.47;1.17;;;;;;;;;;5084338;28;20182;-47
2021/08/08 12:32:04;;;;;;;3.08;1.05;;;;;;;;;;5093771;28;20488;-47
2021/08/08 12:34:30;;;;;;;2.35;0.93;;;;;;;;;;5094905;28;20175;-48
2021/08/08 12:37:02;;;;;;;10.10;2.78;;;;;;;;;;5086137;28;20932;-48
2021/08/08 12:39:28;;;;;;;248.82;44.78;;;;;;;;;;5074832;28;20175;-47
2021/08/08 12:41:54;;;;;;;200.60;38.45;;;;;;;;;;5085790;28;20265;-48
2021/08/08 12:44:30;;;;;;;120.75;23.88;;;;;;;;;;5080793;28;20216;-47
2021/08/08 12:46:59;;;;;;;227.23;59.13;;;;;;;;;;5087342;28;20188;-48
2021/08/08 12:49:32;;;;;;;95.88;27.13;;;;;;;;;;5088614;28;20178;-47
2021/08/08 12:51:57;;;;;;;49.30;16.73;;;;;;;;;;5092485;28;20181;-48
2021/08/08 12:54:24;;;;;;;67.93;21.40;;;;;;;;;;5086648;28;20202;-47
2021/08/08 12:56:50;;;;;;;37.70;12.07;;;;;;;;;;5100522;28;20653;-48
2021/08/08 12:59:16;;;;;;;12.32;4.40;;;;;;;;;;5094911;28;20317;-48
2021/08/08 13:01:42;;;;;;;8.43;3.17;;;;;;;;;;5090675;28;20201;-48
2021/08/08 13:04:11;;;;;;;5.40;1.90;;;;;;;;;;5094898;28;20181;-48
2021/08/08 13:06:37;;;;;;;5.72;2.33;;;;;;;;;;5094357;28;20238;-48
2021/08/08 13:09:03;;;;;;;9.13;3.78;;;;;;;;;;5094674;28;20212;-47
2021/08/08 13:11:32;;;;;;;15.80;3.70;;;;;;;;;;5094955;28;20208;-47
2021/08/08 13:13:59;;;;;;;12.32;4.10;;;;;;;;;;5088704;28;20189;-47
2021/08/08 13:16:25;;;;;;;13.20;3.83;;;;;;;;;;5081235;28;20201;-47
2021/08/08 13:18:50;;;;;;;9.35;2.60;;;;;;;;;;5087882;28;20218;-47
2021/08/08 13:21:16;;;;;;;6.47;2.42;;;;;;;;;;5093757;28;20480;-47
2021/08/08 13:23:43;;;;;;;7.97;2.85;;;;;;;;;;5078276;28;20173;-47
2021/08/08 13:26:09;;;;;;;5.65;3.08;;;;;;;;;;5079223;28;20182;-47
2021/08/08 13:28:35;;;;;;;7.22;2.78;;;;;;;;;;5081361;28;20183;-47
2021/08/08 13:31:01;;;;;;;7.90;2.30;;;;;;;;;;5084587;28;20167;-48
2021/08/08 13:33:27;;;;;;;6.47;3.15;;;;;;;;;;5074328;28;20163;-48
2021/08/08 13:35:53;;;;;;;5.10;1.80;;;;;;;;;;5087231;28;20195;-47
2021/08/08 13:38:19;;;;;;;5.25;1.98;;;;;;;;;;5086480;28;20241;-48
2021/08/08 13:40:45;;;;;;;4.00;1.92;;;;;;;;;;5074451;28;20188;-48
2021/08/08 13:43:11;;;;;;;4.63;1.77;;;;;;;;;;5075541;28;20179;-47
2021/08/08 13:45:37;;;;;;;5.30;2.17;;;;;;;;;;5085576;28;20171;-48
2021/08/08 13:48:03;;;;;;;4.05;2.00;;;;;;;;;;5074181;28;20175;-47
2021/08/08 13:50:29;;;;;;;3.88;1.65;;;;;;;;;;5089875;28;20189;-48
2021/08/08 13:52:55;;;;;;;2.95;1.30;;;;;;;;;;5090817;28;20185;-47
2021/08/08 13:55:21;;;;;;;3.15;1.40;;;;;;;;;;5084747;28;20202;-47
2021/08/08 13:57:48;;;;;;;4.35;1.58;;;;;;;;;;5093938;28;20296;-48
2021/08/08 14:00:14;;;;;;;4.25;1.75;;;;;;;;;;5086618;28;20174;-48
2021/08/08 14:02:40;;;;;;;5.28;1.55;;;;;;;;;;5075020;28;20217;-48
2021/08/08 14:05:07;;;;;;;3.72;1.50;;;;;;;;;;5085259;28;20189;-47
2021/08/08 14:07:33;;;;;;;4.50;1.92;;;;;;;;;;5073641;28;20284;-47
2021/08/08 14:09:59;;;;;;;3.75;1.80;;;;;;;;;;5075169;28;20269;-47
2021/08/08 14:12:25;;;;;;;5.65;2.08;;;;;;;;;;5083065;28;20193;-47
2021/08/08 14:14:51;;;;;;;5.10;2.50;;;;;;;;;;5086497;28;20565;-48
2021/08/08 14:17:17;;;;;;;7.30;2.67;;;;;;;;;;5088318;28;20206;-47
2021/08/08 14:19:43;;;;;;;3.67;2.30;;;;;;;;;;5093280;28;20252;-47
2021/08/08 14:22:09;;;;;;;6.50;2.15;;;;;;;;;;5093496;28;20564;-47
2021/08/08 14:24:35;;;;;;;5.50;2.30;;;;;;;;;;5094241;28;20170;-47
2021/08/08 14:27:01;;;;;;;4.57;2.20;;;;;;;;;;5088949;28;20178;-46
2021/08/08 14:29:27;;;;;;;3.90;2.03;;;;;;;;;;5083244;28;20186;-46
2021/08/08 14:31:53;;;;;;;5.13;1.73;;;;;;;;;;5091201;28;20197;-47
2021/08/08 14:34:19;;;;;;;2.40;1.38;;;;;;;;;;5094000;28;20219;-47
2021/08/08 14:36:45;;;;;;;4.35;1.80;;;;;;;;;;5094090;28;20201;-47
2021/08/08 14:39:11;;;;;;;3.95;1.92;;;;;;;;;;5093491;28;20158;-47
2021/08/08 14:41:37;;;;;;;6.22;1.90;;;;;;;;;;5094684;28;20434;-47